createdAt,value
2018-09-25T00:02:12.175Z,99.90
2018-09-25T00:04:45.663Z,99.90
2018-09-25T00:07:19.266Z,99.90
2018-09-25T00:09:52.955Z,99.90
2018-09-25T00:12:26.636Z,99.90
2018-09-25T00:15:00.305Z,99.90
2018-09-25T00:17:34.032Z,99.90
2018-09-25T00:20:20.751Z,99.90
2018-09-25T00:22:56.551Z,99.90
2018-09-25T00:25:30.207Z,99.90
2018-09-25T00:28:03.864Z,99.90
2018-09-25T00:30:37.431Z,99.90
2018-09-25T00:33:11.025Z,99.90
2018-09-25T00:35:44.662Z,99.90
2018-09-25T00:38:18.340Z,99.90
2018-09-25T00:40:52.007Z,99.90
2018-09-25T00:43:25.833Z,99.90
2018-09-25T00:45:59.320Z,99.90
2018-09-25T00:48:33.045Z,99.90
2018-09-25T00:51:06.751Z,99.90
2018-09-25T00:53:40.367Z,99.90
2018-09-25T00:56:14.082Z,99.90
2018-09-25T00:58:47.793Z,99.90
2018-09-25T01:01:21.469Z,99.90
2018-09-25T01:03:55.144Z,99.90
2018-09-25T01:06:28.789Z,99.90
2018-09-25T01:09:02.440Z,99.90
2018-09-25T01:11:35.995Z,99.90
2018-09-25T01:14:09.870Z,99.90
2018-09-25T01:16:43.518Z,99.90
2018-09-25T01:19:17.278Z,99.90
2018-09-25T01:21:50.927Z,99.90
2018-09-25T01:24:24.519Z,99.90
2018-09-25T01:26:58.224Z,99.90
2018-09-25T01:29:32.952Z,99.90
2018-09-25T01:32:06.498Z,99.90
2018-09-25T01:34:40.147Z,99.90
2018-09-25T01:37:13.759Z,99.90
2018-09-25T01:39:47.663Z,99.90
2018-09-25T01:42:21.398Z,99.90
2018-09-25T01:44:55.054Z,99.90
2018-09-25T01:47:28.680Z,99.90
2018-09-25T01:50:03.318Z,99.90
2018-09-25T01:52:37.078Z,99.90
2018-09-25T01:55:10.786Z,99.90
2018-09-25T01:57:44.389Z,99.90
2018-09-25T02:00:18.029Z,99.90
2018-09-25T02:02:51.856Z,99.90
2018-09-25T02:05:26.595Z,99.90
2018-09-25T02:08:00.130Z,99.90
2018-09-25T02:10:33.774Z,99.90
2018-09-25T02:13:07.409Z,99.90
2018-09-25T02:15:41.025Z,99.90
2018-09-25T02:18:14.654Z,99.90
2018-09-25T02:20:48.353Z,99.90
2018-09-25T02:23:21.905Z,99.90
2018-09-25T02:26:08.259Z,99.90
2018-09-25T02:28:41.891Z,99.90
2018-09-25T02:31:19.238Z,99.90
2018-09-25T02:33:52.898Z,99.90
2018-09-25T02:36:26.905Z,99.90
2018-09-25T02:39:00.530Z,99.90
2018-09-25T02:41:34.234Z,99.90
2018-09-25T02:44:07.928Z,99.90
2018-09-25T02:46:41.557Z,99.90
2018-09-25T02:49:15.125Z,99.90
2018-09-25T02:51:48.739Z,99.90
2018-09-25T02:54:22.284Z,99.90
2018-09-25T02:56:55.828Z,99.90
2018-09-25T02:59:29.818Z,99.90
2018-09-25T03:02:03.365Z,99.90
2018-09-25T03:04:46.800Z,99.90
2018-09-25T03:07:21.225Z,99.90
2018-09-25T03:09:55.193Z,99.90
2018-09-25T03:12:28.827Z,99.90
2018-09-25T03:15:02.449Z,99.90
2018-09-25T03:17:36.038Z,99.90
2018-09-25T03:20:09.580Z,99.90
2018-09-25T03:22:43.240Z,99.90
2018-09-25T03:25:16.962Z,99.90
2018-09-25T03:27:50.576Z,99.90
2018-09-25T03:30:24.197Z,99.90
2018-09-25T03:32:57.850Z,99.90
2018-09-25T03:35:31.450Z,99.90
2018-09-25T03:38:05.114Z,99.90
2018-09-25T03:40:38.656Z,99.90
2018-09-25T03:46:06.007Z,99.90
2018-09-25T03:48:39.532Z,99.90
2018-09-25T03:51:13.183Z,99.90
2018-09-25T03:53:46.765Z,99.90
2018-09-25T03:56:20.552Z,99.90
2018-09-25T03:58:55.324Z,99.90
2018-09-25T04:01:32.450Z,99.90
2018-09-25T04:04:05.924Z,99.90
2018-09-25T04:06:39.590Z,99.90
2018-09-25T04:09:13.121Z,99.90
2018-09-25T04:11:46.994Z,99.90
2018-09-25T04:14:20.872Z,99.90
2018-09-25T04:16:54.817Z,99.90
2018-09-25T04:19:28.465Z,99.90
2018-09-25T04:22:02.163Z,99.90
2018-09-25T04:24:35.799Z,99.90
2018-09-25T04:27:09.482Z,99.90
2018-09-25T04:29:43.090Z,99.90
2018-09-25T04:32:17.469Z,99.90
2018-09-25T04:34:51.252Z,99.90
2018-09-25T04:37:25.099Z,99.90
2018-09-25T04:39:58.779Z,99.90
2018-09-25T04:42:32.475Z,99.90
2018-09-25T04:45:06.053Z,99.90
2018-09-25T04:47:39.674Z,99.90
2018-09-25T04:50:13.223Z,99.90
2018-09-25T04:52:47.000Z,99.90
2018-09-25T04:55:20.656Z,99.90
2018-09-25T04:57:54.292Z,99.90
2018-09-25T05:00:28.187Z,99.90
2018-09-25T05:03:01.804Z,99.90
2018-09-25T05:05:35.633Z,99.90
2018-09-25T05:08:09.859Z,99.90
2018-09-25T05:10:43.524Z,99.90
2018-09-25T05:13:17.120Z,99.90
2018-09-25T05:15:51.428Z,99.90
2018-09-25T05:18:25.314Z,99.90
2018-09-25T05:20:58.994Z,99.90
2018-09-25T05:23:32.675Z,99.90
2018-09-25T05:26:06.432Z,99.90
2018-09-25T05:28:40.294Z,99.90
2018-09-25T05:31:13.817Z,99.90
2018-09-25T05:33:47.279Z,99.90
2018-09-25T05:36:21.230Z,99.90
2018-09-25T05:38:54.906Z,99.90
2018-09-25T05:41:28.499Z,99.90
2018-09-25T05:44:01.997Z,99.90
2018-09-25T05:46:35.856Z,99.90
2018-09-25T05:49:09.494Z,99.90
2018-09-25T05:51:43.147Z,99.90
2018-09-25T05:54:16.730Z,99.90
2018-09-25T05:56:50.156Z,99.90
2018-09-25T05:59:23.806Z,99.90
2018-09-25T06:01:57.444Z,99.90
2018-09-25T06:04:31.040Z,99.90
2018-09-25T06:07:04.573Z,99.90
2018-09-25T06:09:38.185Z,99.90
2018-09-25T06:12:12.263Z,99.90
2018-09-25T06:14:45.940Z,99.90
2018-09-25T06:17:19.573Z,99.90
2018-09-25T06:19:53.026Z,99.90
2018-09-25T06:22:26.810Z,99.90
2018-09-25T06:25:00.484Z,99.90
2018-09-25T06:27:34.009Z,99.90
2018-09-25T06:30:08.153Z,99.90
2018-09-25T06:32:42.556Z,99.90
2018-09-25T06:35:16.179Z,99.90
2018-09-25T06:37:50.174Z,99.90
2018-09-25T06:40:23.793Z,99.90
2018-09-25T06:42:57.685Z,99.90
2018-09-25T06:45:31.662Z,99.90
2018-09-25T06:48:05.288Z,99.90
2018-09-25T06:50:39.608Z,99.90
2018-09-25T06:53:19.835Z,99.90
2018-09-25T06:55:53.548Z,99.90
2018-09-25T06:58:27.189Z,99.90
2018-09-25T07:01:01.015Z,99.90
2018-09-25T07:03:34.592Z,99.90
2018-09-25T07:06:08.305Z,99.90
2018-09-25T07:08:42.006Z,99.90
2018-09-25T07:11:15.604Z,99.90
2018-09-25T07:13:49.416Z,99.90
2018-09-25T07:16:23.077Z,99.90
2018-09-25T07:18:56.867Z,99.90
2018-09-25T07:21:30.520Z,99.90
2018-09-25T07:24:04.748Z,99.90
2018-09-25T07:26:38.323Z,99.90
2018-09-25T07:29:12.754Z,99.90
2018-09-25T07:31:47.113Z,99.90
2018-09-25T07:34:20.882Z,99.90
2018-09-25T07:36:54.691Z,99.90
2018-09-25T07:39:28.465Z,99.90
2018-09-25T07:42:02.205Z,99.90
2018-09-25T07:44:35.918Z,99.90
2018-09-25T07:47:13.201Z,99.90
2018-09-25T07:49:46.936Z,99.90
2018-09-25T07:52:20.500Z,99.90
2018-09-25T07:54:54.088Z,99.90
2018-09-25T07:57:27.885Z,99.90
2018-09-25T08:00:01.526Z,99.90
2018-09-25T08:02:35.241Z,99.90
2018-09-25T08:05:08.950Z,99.90
2018-09-25T08:07:43.860Z,99.90
2018-09-25T08:10:21.612Z,99.90
2018-09-25T08:12:55.220Z,99.90
2018-09-25T08:15:28.833Z,99.90
2018-09-25T08:18:02.513Z,99.90
2018-09-25T08:20:36.125Z,99.90
2018-09-25T08:23:09.955Z,99.90
2018-09-25T08:25:43.692Z,99.90
2018-09-25T08:28:17.172Z,99.90
2018-09-25T08:30:50.741Z,99.90
2018-09-25T08:33:24.380Z,99.90
2018-09-25T08:35:58.628Z,99.90
2018-09-25T08:38:32.205Z,99.90
2018-09-25T08:41:05.810Z,99.90
2018-09-25T08:43:39.529Z,99.90
2018-09-25T08:46:13.002Z,99.90
2018-09-25T08:48:47.076Z,99.90
2018-09-25T08:51:21.781Z,99.90
2018-09-25T08:53:55.535Z,99.90
2018-09-25T08:56:29.135Z,99.90
2018-09-25T08:59:04.017Z,99.90
2018-09-25T09:01:37.641Z,99.90
2018-09-25T09:04:11.380Z,99.90
2018-09-25T09:06:46.005Z,99.90
2018-09-25T09:09:19.485Z,99.90
2018-09-25T09:11:53.076Z,99.90
2018-09-25T09:14:26.817Z,99.90
2018-09-25T09:17:00.494Z,99.90
2018-09-25T09:19:34.445Z,99.90
2018-09-25T09:22:07.988Z,99.90
2018-09-25T09:24:41.569Z,98.10
2018-09-25T09:27:15.778Z,99.40
2018-09-25T09:29:49.538Z,99.40
2018-09-25T09:32:23.200Z,98.50
2018-09-25T09:34:57.312Z,98.60
2018-09-25T09:37:30.672Z,96.60
2018-09-25T09:40:04.372Z,97.00
2018-09-25T09:42:39.113Z,96.80
2018-09-25T09:45:13.298Z,94.80
2018-09-25T09:47:46.777Z,94.50
2018-09-25T09:50:20.454Z,95.00
2018-09-25T09:52:54.229Z,95.00
2018-09-25T09:55:27.752Z,95.30
2018-09-25T09:58:01.624Z,95.30
2018-09-25T10:00:35.342Z,94.80
2018-09-25T10:03:08.996Z,95.20
2018-09-25T10:05:42.696Z,95.60
2018-09-25T10:08:16.364Z,96.10
2018-09-25T10:10:50.978Z,94.90
2018-09-25T10:13:25.296Z,94.80
2018-09-25T10:15:58.978Z,95.30
2018-09-25T10:18:32.398Z,94.60
2018-09-25T10:21:05.956Z,93.90
2018-09-25T10:23:40.541Z,94.00
2018-09-25T10:26:13.985Z,93.10
2018-09-25T10:28:47.545Z,93.10
2018-09-25T10:31:21.289Z,92.20
2018-09-25T10:33:54.836Z,92.40
2018-09-25T10:36:29.073Z,92.00
2018-09-25T10:39:02.656Z,93.50
2018-09-25T10:41:36.665Z,92.50
2018-09-25T10:44:10.277Z,92.30
2018-09-25T10:46:43.912Z,92.60
2018-09-25T10:49:17.403Z,92.50
2018-09-25T10:51:50.984Z,91.80
2018-09-25T10:54:24.713Z,91.60
2018-09-25T10:56:58.383Z,90.60
2018-09-25T10:59:33.666Z,90.30
2018-09-25T11:02:07.131Z,88.60
2018-09-25T11:04:40.639Z,88.50
2018-09-25T11:07:14.192Z,88.70
2018-09-25T11:09:47.560Z,88.10
2018-09-25T11:12:21.138Z,89.10
2018-09-25T11:14:54.623Z,88.40
2018-09-25T11:17:28.247Z,88.30
2018-09-25T11:20:01.831Z,90.10
2018-09-25T11:22:35.503Z,90.10
2018-09-25T11:25:10.147Z,88.70
2018-09-25T11:27:44.654Z,88.10
2018-09-25T11:30:21.369Z,90.00
2018-09-25T11:32:55.193Z,87.50
2018-09-25T11:35:29.729Z,86.90
2018-09-25T11:38:03.948Z,89.60
2018-09-25T11:40:37.353Z,90.10
2018-09-25T11:43:11.141Z,90.50
2018-09-25T11:45:44.843Z,90.50
2018-09-25T11:48:18.356Z,89.30
2018-09-25T11:50:51.834Z,87.90
2018-09-25T11:53:25.407Z,86.50
2018-09-25T11:55:58.944Z,84.00
2018-09-25T11:58:32.755Z,87.60
2018-09-25T12:01:06.836Z,86.70
2018-09-25T12:03:40.975Z,87.40
2018-09-25T12:06:14.616Z,84.40
2018-09-25T12:08:48.684Z,79.80
2018-09-25T12:11:22.293Z,78.40
2018-09-25T12:13:56.058Z,80.30
2018-09-25T12:16:29.590Z,78.90
2018-09-25T12:19:03.137Z,80.80
2018-09-25T12:21:36.728Z,79.00
2018-09-25T12:24:11.518Z,79.20
2018-09-25T12:26:45.137Z,80.10
2018-09-25T12:29:18.733Z,83.70
2018-09-25T12:31:52.315Z,85.70
2018-09-25T12:34:25.776Z,86.10
2018-09-25T12:36:59.457Z,86.50
2018-09-25T12:39:33.058Z,86.60
2018-09-25T12:42:06.553Z,85.90
2018-09-25T12:44:40.196Z,86.00
2018-09-25T12:47:13.822Z,86.40
2018-09-25T12:49:47.493Z,85.90
2018-09-25T12:52:21.298Z,86.70
2018-09-25T12:54:55.073Z,87.10
2018-09-25T12:57:28.721Z,90.00
2018-09-25T13:00:02.345Z,88.70
2018-09-25T13:02:35.844Z,85.80
2018-09-25T13:05:09.469Z,86.80
2018-09-25T13:07:43.127Z,85.90
2018-09-25T13:10:16.725Z,86.40
2018-09-25T13:12:50.605Z,86.00
2018-09-25T13:15:24.430Z,85.10
2018-09-25T13:17:58.212Z,83.50
2018-09-25T13:20:32.330Z,84.20
2018-09-25T13:23:05.976Z,85.50
2018-09-25T13:25:39.653Z,86.30
2018-09-25T13:28:13.144Z,86.00
2018-09-25T13:30:46.645Z,85.50
2018-09-25T13:33:20.255Z,83.30
2018-09-25T13:35:53.898Z,82.30
2018-09-25T13:38:27.465Z,83.10
2018-09-25T13:41:01.150Z,83.50
2018-09-25T13:43:34.625Z,82.60
2018-09-25T13:46:08.073Z,79.80
2018-09-25T13:48:41.711Z,79.90
2018-09-25T13:51:15.238Z,81.00
2018-09-25T13:53:49.279Z,79.40
2018-09-25T13:56:22.888Z,79.30
2018-09-25T13:58:56.440Z,79.40
2018-09-25T14:01:29.995Z,79.80
2018-09-25T14:04:03.581Z,80.80
2018-09-25T14:06:37.228Z,81.20
2018-09-25T14:09:13.972Z,80.10
2018-09-25T14:11:47.795Z,77.90
2018-09-25T14:14:21.523Z,78.40
2018-09-25T14:16:55.024Z,81.80
2018-09-25T14:19:28.726Z,78.60
2018-09-25T14:22:02.466Z,79.50
2018-09-25T14:24:36.404Z,80.50
2018-09-25T14:27:09.826Z,76.60
2018-09-25T14:29:43.923Z,78.10
2018-09-25T14:32:17.553Z,75.90
2018-09-25T14:34:51.098Z,75.50
2018-09-25T14:37:24.677Z,76.70
2018-09-25T14:39:58.173Z,76.60
2018-09-25T14:42:31.790Z,76.10
2018-09-25T14:45:05.453Z,76.70
2018-09-25T14:47:39.083Z,75.20
2018-09-25T14:50:12.683Z,76.70
2018-09-25T14:52:46.276Z,75.10
2018-09-25T14:55:19.838Z,72.20
2018-09-25T14:57:53.889Z,71.80
2018-09-25T15:00:27.505Z,75.50
2018-09-25T15:03:01.337Z,73.80
2018-09-25T15:05:34.984Z,75.90
2018-09-25T15:08:08.617Z,77.70
2018-09-25T15:10:43.429Z,79.10
2018-09-25T15:13:17.355Z,76.30
2018-09-25T15:15:51.169Z,74.90
2018-09-25T15:18:24.974Z,76.80
2018-09-25T15:20:58.841Z,79.70
2018-09-25T15:23:32.185Z,76.20
2018-09-25T15:26:05.806Z,75.70
2018-09-25T15:28:40.176Z,73.50
2018-09-25T15:31:13.781Z,75.40
2018-09-25T15:33:47.532Z,74.90
2018-09-25T15:36:21.196Z,74.60
2018-09-25T15:38:54.858Z,76.40
2018-09-25T15:41:28.515Z,76.10
2018-09-25T15:44:01.919Z,76.70
2018-09-25T15:46:35.720Z,79.80
2018-09-25T15:49:09.353Z,77.40
2018-09-25T15:51:43.157Z,77.30
2018-09-25T15:54:16.853Z,77.00
2018-09-25T15:56:50.392Z,76.00
2018-09-25T15:59:24.148Z,75.50
2018-09-25T16:01:57.920Z,74.80
2018-09-25T16:04:31.735Z,80.40
2018-09-25T16:07:05.264Z,79.00
2018-09-25T16:09:38.858Z,77.60
2018-09-25T16:12:12.666Z,80.50
2018-09-25T16:14:46.251Z,79.30
2018-09-25T16:17:20.017Z,82.20
2018-09-25T16:19:53.646Z,82.10
2018-09-25T16:22:27.164Z,89.20
2018-09-25T16:25:04.038Z,90.90
2018-09-25T16:27:37.755Z,88.80
2018-09-25T16:30:11.253Z,90.90
2018-09-25T16:32:44.737Z,92.10
2018-09-25T16:35:18.398Z,91.90
2018-09-25T16:37:51.888Z,92.50
2018-09-25T16:40:25.568Z,93.20
2018-09-25T16:42:59.261Z,93.70
2018-09-25T16:45:32.829Z,94.50
2018-09-25T16:48:06.663Z,95.70
2018-09-25T16:50:40.409Z,95.80
2018-09-25T16:53:14.014Z,96.70
2018-09-25T16:55:47.510Z,97.10
2018-09-25T16:58:20.841Z,97.90
2018-09-25T17:00:54.400Z,98.30
2018-09-25T17:03:28.124Z,98.30
2018-09-25T17:06:01.857Z,98.70
2018-09-25T17:08:35.889Z,99.00
2018-09-25T17:11:09.485Z,99.10
2018-09-25T17:13:43.336Z,99.30
2018-09-25T17:16:17.954Z,99.90
2018-09-25T17:18:51.799Z,99.90
2018-09-25T17:21:25.512Z,99.90
2018-09-25T17:23:59.104Z,99.90
2018-09-25T17:26:32.646Z,99.90
2018-09-25T17:29:06.341Z,99.90
2018-09-25T17:31:41.145Z,99.90
2018-09-25T17:34:14.746Z,99.90
2018-09-25T17:36:48.393Z,99.90
2018-09-25T17:39:22.017Z,99.90
2018-09-25T17:41:55.372Z,99.90
2018-09-25T17:44:29.014Z,99.90
2018-09-25T17:47:02.753Z,99.90
2018-09-25T17:49:36.881Z,99.90
2018-09-25T17:52:10.501Z,99.90
2018-09-25T17:54:44.506Z,99.90
2018-09-25T17:57:18.564Z,99.90
2018-09-25T17:59:52.304Z,99.90
2018-09-25T18:02:25.846Z,99.90
2018-09-25T18:04:59.744Z,99.90
2018-09-25T18:07:33.901Z,99.90
2018-09-25T18:10:07.573Z,99.90
2018-09-25T18:12:41.166Z,99.90
2018-09-25T18:15:14.951Z,99.90
2018-09-25T18:17:49.937Z,99.90
2018-09-25T18:20:23.824Z,99.90
2018-09-25T18:22:58.449Z,99.90
2018-09-25T18:25:32.599Z,99.90
2018-09-25T18:28:06.466Z,99.90
2018-09-25T18:30:40.586Z,99.90
2018-09-25T18:33:14.202Z,99.90
2018-09-25T18:35:47.880Z,99.90
2018-09-25T18:38:21.725Z,99.90
2018-09-25T18:40:59.009Z,99.90
2018-09-25T18:43:32.614Z,99.90
2018-09-25T18:46:06.470Z,99.90
2018-09-25T18:48:40.216Z,99.90
2018-09-25T18:51:16.053Z,99.90
2018-09-25T18:53:49.840Z,99.90
2018-09-25T18:56:23.748Z,99.90
2018-09-25T18:58:58.969Z,99.90
2018-09-25T19:01:38.078Z,99.90
2018-09-25T19:04:11.760Z,99.90
2018-09-25T19:06:46.373Z,99.90
2018-09-25T19:09:20.445Z,99.90
2018-09-25T19:11:54.310Z,99.90
2018-09-25T19:14:28.004Z,99.90
2018-09-25T19:17:02.195Z,99.90
2018-09-25T19:19:37.656Z,99.90
2018-09-25T19:22:12.186Z,99.90
2018-09-25T19:24:47.500Z,99.90
2018-09-25T19:27:21.986Z,99.90
2018-09-25T19:29:55.774Z,99.90
2018-09-25T19:32:30.646Z,99.90
2018-09-25T19:35:05.489Z,99.90
2018-09-25T19:37:39.293Z,99.90
2018-09-25T19:40:13.617Z,99.90
2018-09-25T19:42:47.508Z,99.90
2018-09-25T19:45:22.229Z,99.90
2018-09-25T19:47:56.331Z,99.90
2018-09-25T19:50:29.810Z,99.90
2018-09-25T19:53:03.708Z,99.90
2018-09-25T19:55:37.545Z,99.90
2018-09-25T19:58:11.128Z,99.90
2018-09-25T20:00:44.820Z,99.90
2018-09-25T20:03:18.505Z,99.90
2018-09-25T20:05:55.456Z,99.90
2018-09-25T20:08:29.096Z,99.90
2018-09-25T20:11:02.836Z,99.90
2018-09-25T20:13:36.565Z,99.90
2018-09-25T20:16:10.157Z,99.90
2018-09-25T20:18:43.861Z,99.90
2018-09-25T20:21:17.342Z,99.90
2018-09-25T20:23:52.033Z,99.90
2018-09-25T20:26:26.007Z,99.90
2018-09-25T20:28:59.473Z,99.90
2018-09-25T20:31:33.185Z,99.90
2018-09-25T20:34:06.660Z,99.90
2018-09-25T20:36:40.256Z,99.90
2018-09-25T20:39:13.868Z,99.90
2018-09-25T20:41:47.634Z,99.90
2018-09-25T20:44:22.033Z,99.90
2018-09-25T20:46:56.745Z,99.90
2018-09-25T20:49:30.201Z,99.90
2018-09-25T20:52:03.870Z,99.90
2018-09-25T20:54:37.504Z,99.90
2018-09-25T20:57:11.309Z,99.90
2018-09-25T20:59:45.188Z,99.90
2018-09-25T21:02:18.900Z,99.90
2018-09-25T21:04:52.770Z,99.90
2018-09-25T21:07:26.618Z,99.90
2018-09-25T21:10:00.237Z,99.90
2018-09-25T21:12:34.045Z,99.90
2018-09-25T21:15:08.190Z,99.90
2018-09-25T21:17:41.781Z,99.90
2018-09-25T21:20:15.378Z,99.90
2018-09-25T21:22:49.001Z,99.90
2018-09-25T21:25:23.037Z,99.90
2018-09-25T21:27:56.722Z,99.90
2018-09-25T21:30:30.471Z,99.90
2018-09-25T21:33:04.494Z,99.90
2018-09-25T21:35:38.725Z,99.90
2018-09-25T21:38:12.312Z,99.90
2018-09-25T21:40:45.843Z,99.90
2018-09-25T21:43:19.397Z,99.90
2018-09-25T21:45:53.600Z,99.90
2018-09-25T21:48:34.009Z,99.90
2018-09-25T21:51:07.758Z,99.90
2018-09-25T21:53:41.280Z,99.90
2018-09-25T21:56:14.716Z,99.90
2018-09-25T21:58:48.665Z,99.90
2018-09-25T22:01:22.117Z,99.90
2018-09-25T22:03:55.719Z,99.90
2018-09-25T22:06:29.329Z,99.90
2018-09-25T22:09:02.908Z,99.90
2018-09-25T22:11:36.642Z,99.90
2018-09-25T22:14:10.471Z,99.90
2018-09-25T22:16:44.282Z,99.90
2018-09-25T22:19:17.944Z,99.90
2018-09-25T22:21:51.819Z,99.90
2018-09-25T22:24:25.533Z,99.90
2018-09-25T22:26:59.306Z,99.90
2018-09-25T22:29:33.393Z,99.90
2018-09-25T22:32:06.960Z,99.90
2018-09-25T22:34:40.701Z,99.90
2018-09-25T22:37:14.265Z,99.90
2018-09-25T22:39:47.706Z,99.90
2018-09-25T22:42:21.301Z,99.90
2018-09-25T22:44:54.941Z,99.90
2018-09-25T22:47:28.829Z,99.90
2018-09-25T22:50:03.155Z,99.90
2018-09-25T22:52:36.958Z,99.90
2018-09-25T22:55:10.415Z,99.90
2018-09-25T22:57:44.044Z,99.90
2018-09-25T23:00:17.517Z,99.90
2018-09-25T23:02:51.325Z,99.90
2018-09-25T23:05:24.957Z,99.90
2018-09-25T23:07:58.630Z,99.90
2018-09-25T23:10:32.256Z,99.90
2018-09-25T23:13:06.123Z,99.90
2018-09-25T23:15:39.576Z,99.90
2018-09-25T23:18:13.516Z,99.90
2018-09-25T23:20:47.067Z,99.90
2018-09-25T23:23:21.042Z,99.90
2018-09-25T23:25:54.691Z,99.90
2018-09-25T23:28:28.604Z,99.90
2018-09-25T23:31:02.557Z,99.90
2018-09-25T23:33:36.613Z,99.90
2018-09-25T23:36:10.772Z,99.90
2018-09-25T23:38:44.369Z,99.90
2018-09-25T23:41:21.800Z,99.90
2018-09-25T23:43:55.859Z,99.90
2018-09-25T23:46:28.365Z,99.90
2018-09-25T23:48:59.826Z,99.90
2018-09-25T23:51:33.505Z,99.90
2018-09-25T23:54:09.024Z,99.90
2018-09-25T23:56:43.140Z,99.90
2018-09-25T23:59:19.282Z,99.90
